createdAt,value
2019-04-03T00:00:37.929Z,13.93
2019-04-03T00:03:07.772Z,12.35
2019-04-03T00:05:37.228Z,14.07
2019-04-03T00:08:07.204Z,13.45
2019-04-03T00:10:38.093Z,14.20
2019-04-03T00:13:10.371Z,15.10
2019-04-03T00:15:39.000Z,13.70
2019-04-03T00:18:08.433Z,13.72
2019-04-03T00:20:37.886Z,12.00
2019-04-03T00:23:07.408Z,13.62
2019-04-03T00:25:36.923Z,14.03
2019-04-03T00:28:06.545Z,13.88
2019-04-03T00:30:36.024Z,12.20
2019-04-03T00:33:05.584Z,18.65
2019-04-03T00:35:35.009Z,12.65
2019-04-03T00:38:04.448Z,13.05
2019-04-03T00:40:33.899Z,12.93
2019-04-03T00:43:03.335Z,11.28
2019-04-03T00:45:32.779Z,11.57
2019-04-03T00:48:02.204Z,11.60
2019-04-03T00:50:31.654Z,12.13
2019-04-03T00:53:01.103Z,11.20
2019-04-03T00:55:30.579Z,12.95
2019-04-03T00:58:00.020Z,11.00
2019-04-03T01:00:30.556Z,12.50
2019-04-03T01:02:59.996Z,12.00
2019-04-03T01:05:29.553Z,14.25
2019-04-03T01:07:59.830Z,10.78
2019-04-03T01:10:30.264Z,12.37
2019-04-03T01:13:01.761Z,10.25
2019-04-03T01:15:31.668Z,9.90
2019-04-03T01:18:04.240Z,9.85
2019-04-03T01:20:32.733Z,10.03
2019-04-03T01:23:02.228Z,12.93
2019-04-03T01:25:31.711Z,12.05
2019-04-03T01:28:01.094Z,14.60
2019-04-03T01:30:30.540Z,9.55
2019-04-03T01:33:00.038Z,11.83
2019-04-03T01:35:29.476Z,10.75
2019-04-03T01:37:58.910Z,9.55
2019-04-03T01:40:28.352Z,11.57
2019-04-03T01:42:57.806Z,10.65
2019-04-03T01:45:27.241Z,9.53
2019-04-03T01:47:58.137Z,10.78
2019-04-03T01:50:28.652Z,10.00
2019-04-03T01:52:58.580Z,12.60
2019-04-03T01:55:28.033Z,9.83
2019-04-03T01:57:57.463Z,10.85
2019-04-03T02:00:27.218Z,12.70
2019-04-03T02:02:57.062Z,10.90
2019-04-03T02:05:27.204Z,11.03
2019-04-03T02:07:56.697Z,10.72
2019-04-03T02:10:26.123Z,10.48
2019-04-03T02:12:55.557Z,11.35
2019-04-03T02:15:25.095Z,8.13
2019-04-03T02:17:55.228Z,11.57
2019-04-03T02:20:26.517Z,9.25
2019-04-03T02:22:55.951Z,9.73
2019-04-03T02:25:25.374Z,12.15
2019-04-03T02:27:54.809Z,9.70
2019-04-03T02:30:24.275Z,11.80
2019-04-03T02:32:56.344Z,10.25
2019-04-03T02:35:24.849Z,8.50
2019-04-03T02:37:54.641Z,8.75
2019-04-03T02:40:24.130Z,8.83
2019-04-03T02:42:53.562Z,9.38
2019-04-03T02:45:24.312Z,8.75
2019-04-03T02:47:54.211Z,8.80
2019-04-03T02:50:26.666Z,7.75
2019-04-03T02:52:58.016Z,9.50
2019-04-03T02:55:27.289Z,9.78
2019-04-03T02:57:56.806Z,7.80
2019-04-03T03:00:26.252Z,7.45
2019-04-03T03:02:55.684Z,8.38
2019-04-03T03:05:28.383Z,7.58
2019-04-03T03:07:56.367Z,9.08
2019-04-03T03:10:25.813Z,8.25
2019-04-03T03:12:59.891Z,8.83
2019-04-03T03:15:27.963Z,9.80
2019-04-03T03:17:57.461Z,11.25
2019-04-03T03:20:26.985Z,7.70
2019-04-03T03:22:56.396Z,8.88
2019-04-03T03:25:26.191Z,7.42
2019-04-03T03:27:56.285Z,7.50
2019-04-03T03:30:39.497Z,7.30
2019-04-03T03:33:21.854Z,7.08
2019-04-03T03:35:31.453Z,7.05
2019-04-03T03:38:00.099Z,7.62
2019-04-03T03:40:29.716Z,7.87
2019-04-03T03:42:59.358Z,11.95
2019-04-03T03:45:28.804Z,9.50
2019-04-03T03:47:58.335Z,9.35
2019-04-03T03:50:27.765Z,9.00
2019-04-03T03:52:57.224Z,10.15
2019-04-03T03:55:26.652Z,8.53
2019-04-03T03:57:56.490Z,18.60
2019-04-03T04:00:25.936Z,16.67
2019-04-03T04:02:55.403Z,20.40
2019-04-03T04:05:25.003Z,22.10
2019-04-03T04:07:54.462Z,17.30
2019-04-03T04:10:25.891Z,31.20
2019-04-03T04:12:56.005Z,30.65
2019-04-03T04:15:28.584Z,34.30
2019-04-03T04:17:56.950Z,39.78
2019-04-03T04:20:26.719Z,29.63
2019-04-03T04:22:56.439Z,38.55
2019-04-03T04:25:25.884Z,26.62
2019-04-03T04:27:55.319Z,30.43
2019-04-03T04:30:24.782Z,25.23
2019-04-03T04:32:54.367Z,23.60
2019-04-03T04:35:23.771Z,24.50
2019-04-03T04:37:55.420Z,27.35
2019-04-03T04:40:24.461Z,21.55
2019-04-03T04:42:53.907Z,28.17
2019-04-03T04:45:23.353Z,20.72
2019-04-03T04:47:52.820Z,22.52
2019-04-03T04:50:25.762Z,30.05
2019-04-03T04:52:56.719Z,23.32
2019-04-03T04:55:26.445Z,23.50
2019-04-03T04:57:55.878Z,22.50
2019-04-03T05:00:25.339Z,22.58
2019-04-03T05:02:54.796Z,20.62
2019-04-03T05:05:26.408Z,23.90
2019-04-03T05:07:55.399Z,22.67
2019-04-03T05:10:24.886Z,22.85
2019-04-03T05:12:54.343Z,23.52
2019-04-03T05:15:24.128Z,29.32
2019-04-03T05:17:53.523Z,21.15
2019-04-03T05:20:22.978Z,19.27
2019-04-03T05:22:54.548Z,19.52
2019-04-03T05:25:23.686Z,20.30
2019-04-03T05:27:53.120Z,21.62
2019-04-03T05:30:30.008Z,18.73
2019-04-03T05:32:59.691Z,18.70
2019-04-03T05:35:29.134Z,21.42
2019-04-03T05:37:58.585Z,20.30
2019-04-03T05:40:28.033Z,24.43
2019-04-03T05:42:58.112Z,19.65
2019-04-03T05:45:28.739Z,18.98
2019-04-03T05:47:58.207Z,20.15
2019-04-03T05:50:27.960Z,20.62
2019-04-03T05:52:57.370Z,20.77
2019-04-03T05:55:26.815Z,23.40
2019-04-03T05:57:56.522Z,20.17
2019-04-03T06:00:26.698Z,20.25
2019-04-03T06:02:57.730Z,19.30
2019-04-03T06:05:27.298Z,18.50
2019-04-03T06:07:56.743Z,16.20
2019-04-03T06:10:27.933Z,16.25
2019-04-03T06:12:57.461Z,17.02
2019-04-03T06:15:26.890Z,17.02
2019-04-03T06:17:56.446Z,19.17
2019-04-03T06:20:25.941Z,20.20
2019-04-03T06:22:55.382Z,17.25
2019-04-03T06:25:29.034Z,20.05
2019-04-03T06:27:56.053Z,18.30
2019-04-03T06:30:25.943Z,17.50
2019-04-03T06:32:55.752Z,18.23
2019-04-03T06:35:25.183Z,18.37
2019-04-03T06:37:54.749Z,17.05
2019-04-03T06:40:24.266Z,23.87
2019-04-03T06:42:53.727Z,16.97
2019-04-03T06:45:24.038Z,18.50
2019-04-03T06:47:54.476Z,15.48
2019-04-03T06:50:23.886Z,18.65
2019-04-03T06:52:53.720Z,17.42
2019-04-03T06:55:25.346Z,17.37
2019-04-03T06:57:54.402Z,16.27
2019-04-03T07:00:23.843Z,18.80
2019-04-03T07:02:53.256Z,17.27
2019-04-03T07:05:23.137Z,16.82
2019-04-03T07:07:52.576Z,17.27
2019-04-03T07:10:25.644Z,18.57
2019-04-03T07:12:53.492Z,15.53
2019-04-03T07:15:24.563Z,15.30
2019-04-03T07:17:54.087Z,14.95
2019-04-03T07:20:23.966Z,16.02
2019-04-03T07:22:53.646Z,17.48
2019-04-03T07:25:23.582Z,13.85
2019-04-03T07:27:52.992Z,18.02
2019-04-03T07:30:22.506Z,13.60
2019-04-03T07:32:51.888Z,13.78
2019-04-03T07:35:21.316Z,14.38
2019-04-03T07:37:51.527Z,12.20
2019-04-03T07:40:21.552Z,11.80
2019-04-03T07:42:51.172Z,11.73
2019-04-03T07:45:20.644Z,13.80
2019-04-03T07:47:50.083Z,14.13
2019-04-03T07:50:19.519Z,15.32
2019-04-03T07:52:49.084Z,13.75
2019-04-03T07:55:18.689Z,14.45
2019-04-03T07:57:48.395Z,13.75
2019-04-03T08:00:18.016Z,12.28
2019-04-03T08:02:49.627Z,11.25
2019-04-03T08:05:18.725Z,11.18
2019-04-03T08:07:48.632Z,12.03
2019-04-03T08:10:18.081Z,10.82
2019-04-03T08:12:47.529Z,10.40
2019-04-03T08:15:17.033Z,9.98
2019-04-03T08:17:47.815Z,9.88
2019-04-03T08:20:19.604Z,10.75
2019-04-03T08:22:48.826Z,10.43
2019-04-03T08:25:18.491Z,10.45
2019-04-03T08:27:48.184Z,11.73
2019-04-03T08:30:17.905Z,9.83
2019-04-03T08:32:48.894Z,9.63
2019-04-03T08:35:21.675Z,10.45
2019-04-03T08:37:50.054Z,10.63
2019-04-03T08:40:20.434Z,13.10
2019-04-03T08:42:50.589Z,12.37
2019-04-03T08:45:21.718Z,10.13
2019-04-03T08:47:51.428Z,9.13
2019-04-03T08:50:21.012Z,10.08
2019-04-03T08:52:50.729Z,12.33
2019-04-03T08:55:20.463Z,10.28
2019-04-03T08:57:52.467Z,9.93
2019-04-03T09:00:21.243Z,13.58
2019-04-03T09:02:50.810Z,9.38
2019-04-03T09:05:20.574Z,8.73
2019-04-03T09:07:50.055Z,12.43
2019-04-03T09:10:19.515Z,10.70
2019-04-03T09:12:49.056Z,10.03
2019-04-03T09:15:18.453Z,11.20
2019-04-03T09:17:48.115Z,8.93
2019-04-03T09:20:19.312Z,10.35
2019-04-03T09:22:48.767Z,7.53
2019-04-03T09:25:18.743Z,8.00
2019-04-03T09:27:48.296Z,12.20
2019-04-03T09:30:19.482Z,9.10
2019-04-03T09:32:48.914Z,14.23
2019-04-03T09:35:18.383Z,15.30
2019-04-03T09:37:47.869Z,20.50
2019-04-03T09:40:17.914Z,23.38
2019-04-03T09:42:47.645Z,26.85
2019-04-03T09:45:17.084Z,37.03
2019-04-03T09:47:46.772Z,39.38
2019-04-03T09:50:17.723Z,53.55
2019-04-03T09:52:49.957Z,46.30
2019-04-03T09:55:18.742Z,57.78
2019-04-03T09:57:48.189Z,51.68
2019-04-03T10:00:17.671Z,52.55
2019-04-03T10:02:50.776Z,48.60
2019-04-03T10:05:18.364Z,45.85
2019-04-03T10:07:47.919Z,50.48
2019-04-03T10:10:17.637Z,44.65
2019-04-03T10:12:48.487Z,47.53
2019-04-03T10:15:19.144Z,49.08
2019-04-03T10:17:48.934Z,48.40
2019-04-03T10:20:18.908Z,51.55
2019-04-03T10:22:48.728Z,49.27
2019-04-03T10:25:18.364Z,56.50
2019-04-03T10:27:47.839Z,56.68
2019-04-03T10:30:20.298Z,54.95
2019-04-03T10:32:49.456Z,51.55
2019-04-03T10:35:18.915Z,46.25
2019-04-03T10:37:48.743Z,47.43
2019-04-03T10:40:18.219Z,43.02
2019-04-03T10:42:47.687Z,45.30
2019-04-03T10:45:17.213Z,49.83
2019-04-03T10:47:46.900Z,44.15
2019-04-03T10:50:16.339Z,40.05
2019-04-03T10:52:48.969Z,41.05
2019-04-03T10:55:17.436Z,39.83
2019-04-03T10:57:47.181Z,38.28
2019-04-03T11:00:16.677Z,35.33
2019-04-03T11:02:46.166Z,35.78
2019-04-03T11:05:16.383Z,34.43
2019-04-03T11:07:45.887Z,31.35
2019-04-03T11:10:15.535Z,32.35
2019-04-03T11:12:44.979Z,32.95
2019-04-03T11:15:14.738Z,33.25
2019-04-03T11:17:44.152Z,31.02
2019-04-03T11:20:14.058Z,30.27
2019-04-03T11:22:43.921Z,33.75
2019-04-03T11:27:46.180Z,27.58
2019-04-03T11:30:21.544Z,28.07
2019-04-03T11:30:55.592Z,28.40
2019-04-03T11:32:48.332Z,28.92
2019-04-03T11:35:21.070Z,26.40
2019-04-03T11:37:49.627Z,25.50
2019-04-03T11:40:19.415Z,23.52
2019-04-03T11:42:48.892Z,24.52
2019-04-03T11:45:18.336Z,27.27
2019-04-03T11:47:47.796Z,23.77
2019-04-03T11:50:17.245Z,26.25
2019-04-03T11:52:46.691Z,23.67
2019-04-03T11:55:16.157Z,24.80
2019-04-03T11:57:47.371Z,24.35
2019-04-03T12:00:22.983Z,19.60
2019-04-03T12:02:53.285Z,18.42
2019-04-03T12:05:22.787Z,19.48
2019-04-03T12:07:52.260Z,18.17
2019-04-03T12:10:21.669Z,16.48
2019-04-03T12:12:51.352Z,16.52
2019-04-03T12:15:22.012Z,13.43
2019-04-03T12:17:51.832Z,17.42
2019-04-03T12:20:21.558Z,14.05
2019-04-03T12:22:51.997Z,15.93
2019-04-03T12:25:22.160Z,13.60
2019-04-03T12:27:51.606Z,14.53
2019-04-03T12:30:21.149Z,12.63
2019-04-03T12:32:50.622Z,10.90
2019-04-03T12:35:20.083Z,13.72
2019-04-03T12:37:50.270Z,10.18
2019-04-03T12:40:20.648Z,10.40
2019-04-03T12:42:50.136Z,16.15
2019-04-03T12:45:19.670Z,12.47
2019-04-03T12:47:49.108Z,11.48
2019-04-03T12:50:18.544Z,10.88
2019-04-03T12:52:47.985Z,10.78
2019-04-03T12:55:17.435Z,15.78
2019-04-03T12:57:47.178Z,12.70
2019-04-03T13:00:17.578Z,13.60
2019-04-03T13:02:47.024Z,11.15
2019-04-03T13:05:16.483Z,12.80
2019-04-03T13:07:47.272Z,11.18
2019-04-03T13:10:17.026Z,9.18
2019-04-03T13:12:46.522Z,9.35
2019-04-03T13:15:15.956Z,12.13
2019-04-03T13:17:45.423Z,11.22
2019-04-03T13:20:14.975Z,8.63
2019-04-03T13:22:44.447Z,10.55
2019-04-03T13:25:14.014Z,15.55
2019-04-03T13:27:43.427Z,15.50
2019-04-03T13:30:13.743Z,9.63
2019-04-03T13:32:43.312Z,12.98
2019-04-03T13:35:15.024Z,11.83
2019-04-03T13:37:44.393Z,9.25
2019-04-03T13:40:13.841Z,9.55
2019-04-03T13:42:43.280Z,12.07
2019-04-03T13:45:12.732Z,10.65
2019-04-03T13:47:46.286Z,10.00
2019-04-03T13:50:13.857Z,12.65
2019-04-03T13:52:47.987Z,10.10
2019-04-03T13:55:14.569Z,13.65
2019-04-03T13:57:44.002Z,11.55
2019-04-03T14:00:20.975Z,10.93
2019-04-03T14:02:47.130Z,9.68
2019-04-03T14:05:16.701Z,9.50
2019-04-03T14:07:46.202Z,9.98
2019-04-03T14:10:15.680Z,9.93
2019-04-03T14:12:45.802Z,8.03
2019-04-03T14:15:15.574Z,11.28
2019-04-03T14:17:55.252Z,13.10
2019-04-03T14:20:16.466Z,11.83
2019-04-03T14:22:46.525Z,12.65
2019-04-03T14:25:20.633Z,9.33
2019-04-03T14:27:47.267Z,11.33
2019-04-03T14:30:17.098Z,9.88
2019-04-03T14:32:46.564Z,12.80
2019-04-03T14:35:44.557Z,10.43
2019-04-03T14:37:47.187Z,9.65
2019-04-03T14:40:16.767Z,9.95
2019-04-03T14:42:46.448Z,12.18
2019-04-03T14:45:15.995Z,8.45
2019-04-03T14:47:45.504Z,8.98
2019-04-03T14:50:15.172Z,12.07
2019-04-03T14:52:47.656Z,11.45
2019-04-03T14:55:19.925Z,8.65
2019-04-03T14:57:47.509Z,8.95
2019-04-03T15:00:26.830Z,9.58
2019-04-03T15:02:49.133Z,12.43
2019-04-03T15:05:18.733Z,12.20
2019-04-03T15:07:50.587Z,9.25
2019-04-03T15:10:19.802Z,9.83
2019-04-03T15:12:49.355Z,10.40
2019-04-03T15:15:19.173Z,8.90
2019-04-03T15:17:48.841Z,12.65
2019-04-03T15:20:19.181Z,9.40
2019-04-03T15:22:49.485Z,9.45
2019-04-03T15:25:20.714Z,9.98
2019-04-03T15:27:50.517Z,9.03
2019-04-03T15:30:19.905Z,10.00
2019-04-03T15:32:51.861Z,11.18
2019-04-03T15:35:20.781Z,11.35
2019-04-03T15:37:50.413Z,9.18
2019-04-03T15:40:19.874Z,11.05
2019-04-03T15:42:49.339Z,11.12
2019-04-03T15:45:19.043Z,10.75
2019-04-03T15:47:48.571Z,11.83
2019-04-03T15:50:19.822Z,9.80
2019-04-03T15:52:59.646Z,9.38
2019-04-03T15:55:29.506Z,10.43
2019-04-03T15:57:59.258Z,9.18
2019-04-03T16:00:28.760Z,10.43
2019-04-03T16:02:58.233Z,9.10
2019-04-03T16:05:29.614Z,9.48
2019-04-03T16:07:58.872Z,11.28
2019-04-03T16:10:28.333Z,11.73
2019-04-03T16:12:58.082Z,12.47
2019-04-03T16:15:27.801Z,11.10
2019-04-03T16:18:07.130Z,11.05
2019-04-03T16:20:34.717Z,9.75
2019-04-03T16:23:04.643Z,10.50
2019-04-03T16:25:34.691Z,8.35
2019-04-03T16:28:04.127Z,9.05
2019-04-03T16:30:34.147Z,9.78
2019-04-03T16:33:04.957Z,9.55
2019-04-03T16:35:34.805Z,16.55
2019-04-03T16:38:04.571Z,10.15
2019-04-03T16:40:37.013Z,10.53
2019-04-03T16:43:05.487Z,10.03
2019-04-03T16:45:37.638Z,9.23
2019-04-03T16:48:06.604Z,10.72
2019-04-03T16:50:36.117Z,9.40
2019-04-03T16:53:07.469Z,11.12
2019-04-03T16:55:37.835Z,11.38
2019-04-03T16:58:10.064Z,11.53
2019-04-03T17:00:40.926Z,11.85
2019-04-03T17:03:11.057Z,10.55
2019-04-03T17:05:41.510Z,11.05
2019-04-03T17:08:12.323Z,13.80
2019-04-03T17:10:42.399Z,9.65
2019-04-03T17:13:12.151Z,10.05
2019-04-03T17:15:42.040Z,10.50
2019-04-03T17:18:11.618Z,8.78
2019-04-03T17:20:41.714Z,11.50
2019-04-03T17:23:12.817Z,9.33
2019-04-03T17:25:47.707Z,7.97
2019-04-03T17:28:14.022Z,8.23
2019-04-03T17:30:43.427Z,9.80
2019-04-03T17:33:13.229Z,9.98
2019-04-03T17:35:46.043Z,11.95
2019-04-03T17:38:14.384Z,9.75
2019-04-03T17:40:44.010Z,10.13
2019-04-03T17:43:16.778Z,8.85
2019-04-03T17:45:49.681Z,10.10
2019-04-03T17:48:19.193Z,12.03
2019-04-03T17:50:48.905Z,13.25
2019-04-03T17:53:18.425Z,11.70
2019-04-03T17:55:47.892Z,12.75
2019-04-03T17:58:17.489Z,13.83
2019-04-03T18:00:47.174Z,14.45
2019-04-03T18:03:19.273Z,13.53
2019-04-03T18:05:48.029Z,14.30
2019-04-03T18:08:18.444Z,12.58
2019-04-03T18:10:50.564Z,11.48
2019-04-03T18:13:20.046Z,11.93
2019-04-03T18:15:49.497Z,14.45
2019-04-03T18:18:19.004Z,13.00
2019-04-03T18:20:48.846Z,11.63
2019-04-03T18:23:19.891Z,15.55
2019-04-03T18:25:50.157Z,14.45
2019-04-03T18:28:21.098Z,15.43
2019-04-03T18:30:50.840Z,14.78
2019-04-03T18:33:20.290Z,13.45
2019-04-03T18:35:49.886Z,14.65
2019-04-03T18:38:19.628Z,13.65
2019-04-03T18:40:49.167Z,11.20
2019-04-03T18:43:21.631Z,14.05
2019-04-03T18:45:49.787Z,18.62
2019-04-03T18:48:19.304Z,12.85
2019-04-03T18:50:48.751Z,12.40
2019-04-03T18:53:18.251Z,14.10
2019-04-03T18:55:47.809Z,13.78
2019-04-03T18:58:17.250Z,15.93
2019-04-03T19:00:46.739Z,10.48
2019-04-03T19:03:16.194Z,29.10
2019-04-03T19:05:45.647Z,11.30
2019-04-03T19:08:17.807Z,12.50
2019-04-03T19:10:46.376Z,13.50
2019-04-03T19:13:16.175Z,11.95
2019-04-03T19:15:45.660Z,14.28
2019-04-03T19:18:19.749Z,12.68
2019-04-03T19:20:46.337Z,10.55
2019-04-03T19:23:15.808Z,9.98
2019-04-03T19:25:45.690Z,11.73
2019-04-03T19:28:15.143Z,11.00
2019-04-03T19:30:44.638Z,10.60
2019-04-03T19:33:14.594Z,12.70
2019-04-03T19:35:44.109Z,9.90
2019-04-03T19:38:13.555Z,13.40
2019-04-03T19:40:42.989Z,10.20
2019-04-03T19:43:14.546Z,12.23
2019-04-03T19:45:43.649Z,11.12
2019-04-03T19:48:13.083Z,12.23
2019-04-03T19:50:42.514Z,10.80
2019-04-03T19:53:13.418Z,13.03
2019-04-03T19:55:43.157Z,9.68
2019-04-03T19:58:12.598Z,13.10
2019-04-03T20:00:42.063Z,12.45
2019-04-03T20:03:13.687Z,10.70
2019-04-03T20:05:44.077Z,13.15
2019-04-03T20:08:13.583Z,11.43
2019-04-03T20:10:43.060Z,11.70
2019-04-03T20:13:12.496Z,12.00
2019-04-03T20:15:41.986Z,9.55
2019-04-03T20:18:11.442Z,13.80
2019-04-03T20:20:40.883Z,11.30
2019-04-03T20:23:10.683Z,9.40
2019-04-03T20:25:40.658Z,9.05
2019-04-03T20:28:10.398Z,11.70
2019-04-03T20:30:39.895Z,10.03
2019-04-03T20:33:11.427Z,9.15
2019-04-03T20:35:40.580Z,11.20
2019-04-03T20:38:10.017Z,10.23
2019-04-03T20:40:39.974Z,9.33
2019-04-03T20:43:11.359Z,10.75
2019-04-03T20:45:40.607Z,10.15
2019-04-03T20:48:10.094Z,8.90
2019-04-03T20:50:39.531Z,11.40
2019-04-03T20:53:08.953Z,8.38
2019-04-03T20:55:38.382Z,9.90
2019-04-03T20:58:07.819Z,8.60
2019-04-03T21:00:37.238Z,7.53
2019-04-03T21:03:06.666Z,9.95
2019-04-03T21:05:36.146Z,9.55
2019-04-03T21:08:05.585Z,9.15
2019-04-03T21:10:35.070Z,9.68
2019-04-03T21:13:04.503Z,8.43
2019-04-03T21:15:33.945Z,6.87
2019-04-03T21:18:03.367Z,8.95
2019-04-03T21:20:32.827Z,8.23
2019-04-03T21:23:03.572Z,8.78
2019-04-03T21:25:35.629Z,9.43
2019-04-03T21:28:04.590Z,9.35
2019-04-03T21:30:34.015Z,7.78
2019-04-03T21:33:03.435Z,8.85
2019-04-03T21:35:35.168Z,10.10
2019-04-03T21:38:04.404Z,8.05
2019-04-03T21:40:33.876Z,10.48
2019-04-03T21:43:03.297Z,7.37
2019-04-03T21:45:32.728Z,8.60
2019-04-03T21:48:02.165Z,7.22
2019-04-03T21:50:31.627Z,10.85
2019-04-03T21:53:01.070Z,9.45
2019-04-03T21:55:30.974Z,9.50
2019-04-03T21:58:00.912Z,7.80
2019-04-03T22:01:09.945Z,9.88
2019-04-03T22:03:39.367Z,7.83
2019-04-03T22:06:08.809Z,8.55
2019-04-03T22:08:38.274Z,8.10
2019-04-03T22:11:08.076Z,8.70
2019-04-03T22:13:38.421Z,7.58
2019-04-03T22:16:08.654Z,7.45
2019-04-03T22:18:38.244Z,7.85
2019-04-03T22:21:07.909Z,6.90
2019-04-03T22:23:37.482Z,8.40
2019-04-03T22:26:09.586Z,6.17
2019-04-03T22:28:38.682Z,7.03
2019-04-03T22:31:08.323Z,7.03
2019-04-03T22:33:37.968Z,9.78
2019-04-03T22:36:07.667Z,7.45
2019-04-03T22:38:37.644Z,7.35
2019-04-03T22:41:07.257Z,9.25
2019-04-03T22:43:36.835Z,7.28
2019-04-03T22:46:06.459Z,5.85
2019-04-03T22:48:36.041Z,7.53
2019-04-03T22:51:06.929Z,6.72
2019-04-03T22:53:37.317Z,6.12
2019-04-03T22:56:06.924Z,6.87
2019-04-03T22:58:36.512Z,11.85
2019-04-03T23:01:06.124Z,6.33
2019-04-03T23:03:35.692Z,7.95
2019-04-03T23:06:05.292Z,7.95
2019-04-03T23:08:34.931Z,6.12
2019-04-03T23:11:04.613Z,6.40
2019-04-03T23:13:35.682Z,6.65
2019-04-03T23:16:05.532Z,7.20
2019-04-03T23:18:35.193Z,6.22
2019-04-03T23:21:04.826Z,7.25
2019-04-03T23:23:34.398Z,8.10
2019-04-03T23:26:03.980Z,5.10
2019-04-03T23:28:34.032Z,7.35
2019-04-03T23:31:04.214Z,8.28
2019-04-03T23:33:33.804Z,6.15
2019-04-03T23:36:03.472Z,5.50
2019-04-03T23:38:33.072Z,5.30
2019-04-03T23:41:04.217Z,7.30
2019-04-03T23:43:33.970Z,6.05
2019-04-03T23:46:03.563Z,5.50
2019-04-03T23:48:33.167Z,7.35
2019-04-03T23:51:02.763Z,7.33
2019-04-03T23:53:32.759Z,7.75
2019-04-03T23:56:02.398Z,6.10
2019-04-03T23:58:32.029Z,5.30
